createdAt,value
2017-06-10T00:00:56.565Z,14.89
2017-06-10T00:01:57.141Z,14.84
2017-06-10T00:02:57.715Z,14.68
2017-06-10T00:03:58.290Z,14.85
2017-06-10T00:04:58.866Z,14.82
2017-06-10T00:05:59.460Z,14.73
2017-06-10T00:07:00.030Z,15.14
2017-06-10T00:08:00.605Z,15.24
2017-06-10T00:09:01.182Z,15.18
2017-06-10T00:10:01.759Z,15.25
2017-06-10T00:11:02.332Z,15.09
2017-06-10T00:12:02.907Z,15.11
2017-06-10T00:13:03.482Z,15.07
2017-06-10T00:14:04.058Z,15.17
2017-06-10T00:15:04.633Z,14.94
2017-06-10T00:16:05.208Z,14.96
2017-06-10T00:17:05.784Z,15.06
2017-06-10T00:18:06.359Z,14.96
2017-06-10T00:19:06.936Z,15.25
2017-06-10T00:20:07.513Z,14.99
2017-06-10T00:21:08.093Z,15.03
2017-06-10T00:22:08.665Z,14.86
2017-06-10T00:23:09.242Z,14.96
2017-06-10T00:24:09.820Z,15.02
2017-06-10T00:25:10.395Z,15.18
2017-06-10T00:26:10.969Z,14.96
2017-06-10T00:27:11.546Z,15.06
2017-06-10T00:28:12.121Z,15.15
2017-06-10T00:29:12.697Z,15.18
2017-06-10T00:30:13.284Z,15.03
2017-06-10T00:31:13.860Z,14.99
2017-06-10T00:32:14.436Z,14.96
2017-06-10T00:33:15.011Z,14.91
2017-06-10T00:34:15.588Z,14.89
2017-06-10T00:35:16.164Z,14.99
2017-06-10T00:36:16.740Z,14.85
2017-06-10T00:37:17.315Z,14.77
2017-06-10T00:38:17.891Z,14.96
2017-06-10T00:39:18.467Z,15.10
2017-06-10T00:40:19.043Z,14.88
2017-06-10T00:41:19.618Z,14.73
2017-06-10T00:42:20.193Z,14.78
2017-06-10T00:43:20.768Z,14.68
2017-06-10T00:44:21.345Z,14.85
2017-06-10T00:45:21.921Z,14.94
2017-06-10T00:46:22.499Z,14.78
2017-06-10T00:47:23.085Z,14.69
2017-06-10T00:48:23.674Z,14.66
2017-06-10T00:49:24.248Z,14.68
2017-06-10T00:50:24.825Z,14.50
2017-06-10T00:51:25.399Z,14.79
2017-06-10T00:52:25.975Z,14.69
2017-06-10T00:53:26.549Z,14.53
2017-06-10T00:54:27.136Z,14.65
2017-06-10T00:55:27.714Z,14.60
2017-06-10T00:56:28.289Z,14.69
2017-06-10T00:57:28.878Z,14.60
2017-06-10T00:58:29.454Z,14.44
2017-06-10T00:59:30.029Z,14.48
2017-06-10T01:00:30.606Z,14.47
2017-06-10T01:01:31.188Z,14.30
2017-06-10T01:02:31.764Z,14.32
2017-06-10T01:03:32.340Z,14.43
2017-06-10T01:04:32.917Z,14.32
2017-06-10T01:05:33.493Z,14.37
2017-06-10T01:06:34.070Z,14.33
2017-06-10T01:07:34.649Z,14.29
2017-06-10T01:08:35.226Z,14.30
2017-06-10T01:09:35.805Z,14.59
2017-06-10T01:10:36.381Z,14.36
2017-06-10T01:11:36.958Z,14.40
2017-06-10T01:12:37.536Z,14.30
2017-06-10T01:13:38.113Z,14.17
2017-06-10T01:14:38.692Z,14.41
2017-06-10T01:15:39.269Z,14.32
2017-06-10T01:16:39.847Z,14.43
2017-06-10T01:17:40.424Z,14.43
2017-06-10T01:18:41.004Z,14.47
2017-06-10T01:19:41.577Z,14.28
2017-06-10T01:20:42.153Z,14.17
2017-06-10T01:21:42.731Z,14.33
2017-06-10T01:22:43.309Z,14.25
2017-06-10T01:23:43.888Z,14.29
2017-06-10T01:24:44.464Z,14.18
2017-06-10T01:25:45.041Z,14.18
2017-06-10T01:26:45.618Z,14.10
2017-06-10T01:27:46.195Z,14.22
2017-06-10T01:28:46.774Z,14.22
2017-06-10T01:29:47.352Z,14.32
2017-06-10T01:30:47.929Z,14.47
2017-06-10T01:31:48.506Z,14.40
2017-06-10T01:32:49.084Z,14.43
2017-06-10T01:33:49.660Z,14.37
2017-06-10T01:34:50.238Z,14.25
2017-06-10T01:35:50.815Z,14.32
2017-06-10T01:36:51.393Z,14.45
2017-06-10T01:37:51.972Z,14.63
2017-06-10T01:38:52.549Z,14.72
2017-06-10T01:39:53.140Z,14.63
2017-06-10T01:40:53.718Z,14.70
2017-06-10T01:41:54.295Z,14.51
2017-06-10T01:42:54.872Z,14.47
2017-06-10T01:43:55.449Z,14.33
2017-06-10T01:44:56.025Z,14.59
2017-06-10T01:45:56.605Z,14.51
2017-06-10T01:46:57.184Z,14.50
2017-06-10T01:47:57.763Z,14.30
2017-06-10T01:48:58.338Z,14.14
2017-06-10T01:49:58.915Z,14.12
2017-06-10T01:50:59.507Z,14.28
2017-06-10T01:52:00.098Z,14.17
2017-06-10T01:53:00.674Z,14.36
2017-06-10T01:54:01.252Z,14.17
2017-06-10T01:55:01.828Z,14.29
2017-06-10T01:56:02.403Z,14.53
2017-06-10T01:57:02.980Z,14.50
2017-06-10T01:58:03.556Z,14.20
2017-06-10T01:59:04.135Z,14.07
2017-06-10T02:00:04.711Z,14.25
2017-06-10T02:01:05.286Z,14.15
2017-06-10T02:02:05.861Z,14.54
2017-06-10T02:03:06.437Z,14.43
2017-06-10T02:04:07.010Z,14.26
2017-06-10T02:05:07.586Z,14.58
2017-06-10T02:06:08.161Z,14.60
2017-06-10T02:07:08.748Z,14.28
2017-06-10T02:08:09.325Z,14.08
2017-06-10T02:09:09.899Z,14.08
2017-06-10T02:10:10.476Z,13.95
2017-06-10T02:11:11.049Z,13.90
2017-06-10T02:12:11.626Z,14.03
2017-06-10T02:13:12.198Z,13.95
2017-06-10T02:14:12.774Z,13.90
2017-06-10T02:15:13.348Z,13.97
2017-06-10T02:16:13.924Z,14.07
2017-06-10T02:17:14.498Z,14.20
2017-06-10T02:18:15.072Z,14.14
2017-06-10T02:19:15.660Z,14.10
2017-06-10T02:20:16.235Z,13.93
2017-06-10T02:21:16.812Z,14.00
2017-06-10T02:22:17.401Z,14.00
2017-06-10T02:23:17.976Z,14.04
2017-06-10T02:24:18.552Z,14.08
2017-06-10T02:25:19.128Z,13.95
2017-06-10T02:26:19.704Z,13.90
2017-06-10T02:27:20.279Z,13.89
2017-06-10T02:28:20.870Z,13.99
2017-06-10T02:29:21.442Z,14.23
2017-06-10T02:30:22.019Z,14.03
2017-06-10T02:31:22.596Z,14.17
2017-06-10T02:32:23.170Z,14.08
2017-06-10T02:33:23.757Z,13.92
2017-06-10T02:34:24.343Z,13.68
2017-06-10T02:35:24.917Z,13.99
2017-06-10T02:36:25.491Z,14.18
2017-06-10T02:37:26.068Z,14.10
2017-06-10T02:38:26.641Z,13.92
2017-06-10T02:39:27.229Z,14.07
2017-06-10T02:40:27.805Z,14.04
2017-06-10T02:41:28.380Z,13.92
2017-06-10T02:42:28.954Z,13.95
2017-06-10T02:43:29.530Z,13.72
2017-06-10T02:44:30.104Z,13.78
2017-06-10T02:45:30.681Z,14.03
2017-06-10T02:46:31.255Z,14.20
2017-06-10T02:47:31.828Z,13.90
2017-06-10T02:48:32.404Z,13.79
2017-06-10T02:49:32.980Z,13.89
2017-06-10T02:50:33.567Z,13.77
2017-06-10T02:51:34.142Z,13.70
2017-06-10T02:52:34.718Z,13.77
2017-06-10T02:53:35.293Z,13.68
2017-06-10T02:54:35.867Z,13.67
2017-06-10T02:55:36.442Z,13.63
2017-06-10T02:56:37.017Z,13.57
2017-06-10T02:57:37.592Z,13.67
2017-06-10T02:58:38.166Z,13.75
2017-06-10T02:59:38.741Z,13.81
2017-06-10T03:00:39.328Z,13.78
2017-06-10T03:01:39.906Z,13.70
2017-06-10T03:02:40.491Z,13.63
2017-06-10T03:03:41.066Z,13.67
2017-06-10T03:04:41.642Z,13.60
2017-06-10T03:05:42.218Z,13.62
2017-06-10T03:06:42.796Z,13.78
2017-06-10T03:07:43.370Z,13.75
2017-06-10T03:08:43.947Z,13.67
2017-06-10T03:09:44.522Z,13.62
2017-06-10T03:10:45.097Z,13.60
2017-06-10T03:11:45.674Z,13.60
2017-06-10T03:12:46.249Z,13.62
2017-06-10T03:13:46.826Z,13.54
2017-06-10T03:14:47.412Z,13.54
2017-06-10T03:15:47.989Z,13.56
2017-06-10T03:16:48.567Z,13.47
2017-06-10T03:17:49.143Z,13.35
2017-06-10T03:18:49.719Z,13.41
2017-06-10T03:19:50.294Z,13.41
2017-06-10T03:20:50.870Z,13.46
2017-06-10T03:21:51.445Z,13.46
2017-06-10T03:22:52.020Z,13.42
2017-06-10T03:23:52.594Z,13.59
2017-06-10T03:24:53.170Z,13.54
2017-06-10T03:25:53.747Z,13.57
2017-06-10T03:26:54.324Z,13.59
2017-06-10T03:27:54.900Z,13.53
2017-06-10T03:28:55.476Z,13.56
2017-06-10T03:29:56.052Z,13.46
2017-06-10T03:30:56.629Z,13.39
2017-06-10T03:31:57.203Z,13.44
2017-06-10T03:32:57.778Z,13.47
2017-06-10T03:33:58.354Z,13.49
2017-06-10T03:34:58.930Z,13.50
2017-06-10T03:35:59.506Z,13.44
2017-06-10T03:37:00.085Z,13.46
2017-06-10T03:38:00.671Z,13.38
2017-06-10T03:39:01.248Z,13.28
2017-06-10T03:40:01.838Z,13.37
2017-06-10T03:41:02.410Z,13.30
2017-06-10T03:42:02.985Z,13.59
2017-06-10T03:43:03.560Z,13.42
2017-06-10T03:44:04.136Z,13.42
2017-06-10T03:45:04.714Z,13.28
2017-06-10T03:46:05.303Z,13.33
2017-06-10T03:47:05.880Z,13.31
2017-06-10T03:48:06.464Z,13.35
2017-06-10T03:49:07.035Z,13.44
2017-06-10T03:50:07.611Z,13.41
2017-06-10T03:51:08.188Z,13.47
2017-06-10T03:52:08.765Z,13.57
2017-06-10T03:53:09.341Z,13.46
2017-06-10T03:54:09.920Z,13.54
2017-06-10T03:55:10.508Z,13.46
2017-06-10T03:56:11.089Z,13.52
2017-06-10T03:57:11.663Z,13.70
2017-06-10T03:58:12.241Z,13.52
2017-06-10T03:59:12.816Z,13.49
2017-06-10T04:00:13.392Z,13.59
2017-06-10T04:01:13.970Z,13.62
2017-06-10T04:02:14.545Z,13.53
2017-06-10T04:03:15.124Z,13.52
2017-06-10T04:04:15.712Z,13.57
2017-06-10T04:05:16.301Z,13.56
2017-06-10T04:06:16.876Z,13.62
2017-06-10T04:07:17.451Z,13.56
2017-06-10T04:08:18.027Z,13.77
2017-06-10T04:09:18.604Z,13.68
2017-06-10T04:10:19.181Z,13.75
2017-06-10T04:11:19.759Z,13.63
2017-06-10T04:12:20.335Z,13.74
2017-06-10T04:13:20.912Z,13.63
2017-06-10T04:14:21.487Z,13.68
2017-06-10T04:15:22.065Z,13.62
2017-06-10T04:16:22.642Z,13.59
2017-06-10T04:17:23.221Z,13.74
2017-06-10T04:18:23.799Z,13.75
2017-06-10T04:19:24.377Z,13.74
2017-06-10T04:20:24.953Z,13.75
2017-06-10T04:21:25.532Z,13.70
2017-06-10T04:22:26.111Z,13.68
2017-06-10T04:23:26.691Z,13.71
2017-06-10T04:24:27.265Z,13.70
2017-06-10T04:25:27.843Z,13.68
2017-06-10T04:26:28.422Z,13.67
2017-06-10T04:27:28.998Z,13.62
2017-06-10T04:28:29.583Z,13.70
2017-06-10T04:29:30.155Z,13.68
2017-06-10T04:30:30.740Z,13.87
2017-06-10T04:31:31.313Z,13.68
2017-06-10T04:32:31.890Z,13.95
2017-06-10T04:33:32.469Z,13.70
2017-06-10T04:34:33.045Z,13.74
2017-06-10T04:35:33.623Z,13.71
2017-06-10T04:36:34.217Z,13.71
2017-06-10T04:37:34.789Z,13.77
2017-06-10T04:38:35.366Z,13.85
2017-06-10T04:39:35.950Z,13.89
2017-06-10T04:40:36.524Z,13.89
2017-06-10T04:41:37.100Z,13.83
2017-06-10T04:42:37.676Z,13.93
2017-06-10T04:43:38.254Z,13.90
2017-06-10T04:44:38.833Z,13.92
2017-06-10T04:45:39.409Z,13.92
2017-06-10T04:46:39.987Z,13.81
2017-06-10T04:47:40.563Z,13.92
2017-06-10T04:48:41.140Z,13.90
2017-06-10T04:49:41.719Z,13.93
2017-06-10T04:50:42.299Z,14.04
2017-06-10T04:51:42.875Z,13.95
2017-06-10T04:52:43.451Z,13.95
2017-06-10T04:53:44.030Z,13.96
2017-06-10T04:54:44.609Z,14.00
2017-06-10T04:55:45.186Z,14.14
2017-06-10T04:56:45.764Z,14.28
2017-06-10T04:57:46.342Z,14.12
2017-06-10T04:58:46.920Z,14.10
2017-06-10T04:59:47.500Z,14.00
2017-06-10T05:00:48.077Z,14.17
2017-06-10T05:01:48.667Z,14.12
2017-06-10T05:02:49.246Z,14.11
2017-06-10T05:03:49.835Z,14.18
2017-06-10T05:04:50.413Z,14.29
2017-06-10T05:05:50.990Z,14.29
2017-06-10T05:06:51.567Z,14.23
2017-06-10T05:07:52.145Z,14.14
2017-06-10T05:08:52.724Z,14.30
2017-06-10T05:09:53.301Z,14.40
2017-06-10T05:10:53.881Z,14.28
2017-06-10T05:11:54.459Z,14.43
2017-06-10T05:12:55.038Z,14.33
2017-06-10T05:13:55.617Z,14.51
2017-06-10T05:14:56.194Z,14.47
2017-06-10T05:15:56.772Z,14.35
2017-06-10T05:16:57.349Z,14.29
2017-06-10T05:17:57.927Z,14.48
2017-06-10T05:18:58.506Z,14.48
2017-06-10T05:19:59.083Z,14.59
2017-06-10T05:20:59.661Z,14.50
2017-06-10T05:22:00.240Z,14.53
2017-06-10T05:23:00.818Z,14.51
2017-06-10T05:24:01.398Z,14.35
2017-06-10T05:25:01.977Z,14.62
2017-06-10T05:26:02.554Z,14.59
2017-06-10T05:27:03.132Z,14.78
2017-06-10T05:28:03.711Z,14.72
2017-06-10T05:29:04.293Z,14.62
2017-06-10T05:30:04.880Z,14.65
2017-06-10T05:31:05.459Z,14.70
2017-06-10T05:32:06.037Z,14.68
2017-06-10T05:33:06.614Z,14.72
2017-06-10T05:34:07.193Z,14.79
2017-06-10T05:35:07.772Z,14.79
2017-06-10T05:36:08.350Z,14.84
2017-06-10T05:37:08.929Z,14.78
2017-06-10T05:38:09.506Z,14.77
2017-06-10T05:39:10.083Z,14.89
2017-06-10T05:40:10.663Z,14.92
2017-06-10T05:41:11.240Z,14.86
2017-06-10T05:42:11.820Z,15.14
2017-06-10T05:43:12.398Z,15.14
2017-06-10T05:44:12.974Z,15.09
2017-06-10T05:45:13.554Z,15.25
2017-06-10T05:46:14.132Z,15.18
2017-06-10T05:47:14.711Z,15.10
2017-06-10T05:48:15.290Z,15.19
2017-06-10T05:49:15.867Z,15.25
2017-06-10T05:50:16.447Z,15.15
2017-06-10T05:51:17.024Z,15.09
2017-06-10T05:52:17.604Z,15.06
2017-06-10T05:53:18.181Z,15.19
2017-06-10T05:54:18.759Z,15.29
2017-06-10T05:55:19.338Z,15.46
2017-06-10T05:56:19.918Z,15.49
2017-06-10T05:57:20.508Z,15.37
2017-06-10T05:58:21.088Z,15.25
2017-06-10T05:59:21.666Z,15.31
2017-06-10T06:00:22.244Z,15.42
2017-06-10T06:01:22.822Z,15.35
2017-06-10T06:02:23.401Z,15.49
2017-06-10T06:03:23.982Z,15.51
2017-06-10T06:04:24.573Z,15.52
2017-06-10T06:05:25.150Z,15.39
2017-06-10T06:06:25.730Z,15.33
2017-06-10T06:07:26.308Z,15.36
2017-06-10T06:08:26.887Z,15.44
2017-06-10T06:09:27.467Z,15.39
2017-06-10T06:10:28.046Z,15.57
2017-06-10T06:11:28.637Z,15.73
2017-06-10T06:12:29.218Z,15.67
2017-06-10T06:13:29.795Z,15.88
2017-06-10T06:14:30.378Z,15.70
2017-06-10T06:15:30.951Z,15.75
2017-06-10T06:16:31.530Z,15.82
2017-06-10T06:17:32.109Z,16.00
2017-06-10T06:18:32.689Z,16.02
2017-06-10T06:19:33.266Z,16.17
2017-06-10T06:20:33.844Z,16.23
2017-06-10T06:21:34.425Z,15.88
2017-06-10T06:22:35.005Z,16.09
2017-06-10T06:23:35.582Z,16.04
2017-06-10T06:24:36.160Z,16.15
2017-06-10T06:25:36.741Z,16.04
2017-06-10T06:26:37.322Z,15.77
2017-06-10T06:27:37.898Z,16.05
2017-06-10T06:28:38.476Z,16.09
2017-06-10T06:29:39.054Z,16.17
2017-06-10T06:30:39.632Z,16.32
2017-06-10T06:31:40.211Z,16.36
2017-06-10T06:32:40.792Z,16.47
2017-06-10T06:33:41.370Z,16.46
2017-06-10T06:34:41.948Z,16.38
2017-06-10T06:35:42.531Z,16.23
2017-06-10T06:36:43.106Z,16.41
2017-06-10T06:37:43.687Z,16.60
2017-06-10T06:38:44.266Z,16.47
2017-06-10T06:39:44.843Z,16.60
2017-06-10T06:40:45.422Z,16.68
2017-06-10T06:41:46.001Z,16.46
2017-06-10T06:42:46.581Z,16.53
2017-06-10T06:43:47.159Z,16.78
2017-06-10T06:44:47.739Z,16.81
2017-06-10T06:45:48.318Z,16.90
2017-06-10T06:46:48.898Z,16.79
2017-06-10T06:47:49.478Z,16.79
2017-06-10T06:48:50.057Z,16.75
2017-06-10T06:49:50.635Z,16.71
2017-06-10T06:50:51.214Z,16.50
2017-06-10T06:51:51.793Z,16.66
2017-06-10T06:52:52.378Z,16.90
2017-06-10T06:53:52.964Z,17.09
2017-06-10T06:54:53.543Z,17.22
2017-06-10T06:55:54.133Z,17.22
2017-06-10T06:56:54.714Z,17.16
2017-06-10T06:57:55.294Z,17.15
2017-06-10T06:58:55.874Z,17.29
2017-06-10T06:59:56.454Z,17.45
2017-06-10T07:00:57.034Z,17.39
2017-06-10T07:01:57.615Z,17.24
2017-06-10T07:02:58.194Z,17.27
2017-06-10T07:03:58.785Z,17.41
2017-06-10T07:04:59.376Z,17.09
2017-06-10T07:05:59.968Z,17.16
2017-06-10T07:07:00.548Z,17.26
2017-06-10T07:08:01.127Z,17.51
2017-06-10T07:09:01.709Z,17.59
2017-06-10T07:10:02.289Z,17.64
2017-06-10T07:11:02.869Z,17.65
2017-06-10T07:12:03.449Z,17.46
2017-06-10T07:13:04.028Z,17.36
2017-06-10T07:14:04.609Z,17.36
2017-06-10T07:15:05.187Z,17.36
2017-06-10T07:16:05.766Z,17.26
2017-06-10T07:17:06.346Z,17.52
2017-06-10T07:18:06.925Z,17.44
2017-06-10T07:19:07.506Z,17.90
2017-06-10T07:20:08.085Z,17.94
2017-06-10T07:21:08.665Z,17.56
2017-06-10T07:22:09.244Z,17.70
2017-06-10T07:23:09.823Z,17.76
2017-06-10T07:24:10.404Z,17.59
2017-06-10T07:25:12.400Z,17.87
2017-06-10T07:26:12.979Z,17.94
2017-06-10T07:27:13.561Z,18.08
2017-06-10T07:28:14.141Z,18.00
2017-06-10T07:29:14.735Z,17.97
2017-06-10T07:30:15.315Z,18.07
2017-06-10T07:31:15.895Z,18.16
2017-06-10T07:32:16.474Z,18.31
2017-06-10T07:33:17.054Z,18.07
2017-06-10T07:34:17.634Z,18.11
2017-06-10T07:35:18.226Z,18.03
2017-06-10T07:36:18.824Z,18.13
2017-06-10T07:37:19.396Z,18.01
2017-06-10T07:38:19.976Z,18.04
2017-06-10T07:39:20.557Z,18.03
2017-06-10T07:40:21.136Z,18.16
2017-06-10T07:41:21.717Z,18.03
2017-06-10T07:42:22.334Z,18.11
2017-06-10T07:43:22.915Z,18.00
2017-06-10T07:44:23.494Z,18.28
2017-06-10T07:45:24.074Z,18.37
2017-06-10T07:46:24.656Z,18.60
2017-06-10T07:47:25.235Z,18.28
2017-06-10T07:48:25.815Z,18.68
2017-06-10T07:49:26.396Z,18.45
2017-06-10T07:50:26.976Z,18.33
2017-06-10T07:51:27.559Z,18.56
2017-06-10T07:52:28.138Z,18.75
2017-06-10T07:53:28.725Z,18.80
2017-06-10T07:54:29.298Z,19.04
2017-06-10T07:55:29.879Z,18.89
2017-06-10T07:56:30.461Z,19.02
2017-06-10T07:57:31.041Z,19.18
2017-06-10T07:58:31.621Z,19.40
2017-06-10T07:59:32.201Z,19.33
2017-06-10T08:00:32.782Z,19.11
2017-06-10T08:01:33.363Z,19.29
2017-06-10T08:02:33.944Z,19.56
2017-06-10T08:03:34.525Z,19.69
2017-06-10T08:04:35.105Z,19.14
2017-06-10T08:05:35.684Z,18.92
2017-06-10T08:06:36.268Z,19.48
2017-06-10T08:07:36.848Z,19.52
2017-06-10T08:08:37.431Z,19.89
2017-06-10T08:09:38.012Z,19.73
2017-06-10T08:10:38.594Z,19.44
2017-06-10T08:11:39.175Z,19.22
2017-06-10T08:12:39.754Z,19.33
2017-06-10T08:13:40.337Z,19.31
2017-06-10T08:14:40.918Z,19.31
2017-06-10T08:15:41.498Z,19.41
2017-06-10T08:16:42.081Z,19.24
2017-06-10T08:17:42.661Z,19.79
2017-06-10T08:18:43.242Z,19.70
2017-06-10T08:19:43.822Z,19.55
2017-06-10T08:20:44.416Z,19.52
2017-06-10T08:21:44.997Z,19.69
2017-06-10T08:22:45.580Z,19.76
2017-06-10T08:23:46.162Z,19.79
2017-06-10T08:24:46.745Z,20.06
2017-06-10T08:25:47.325Z,20.00
2017-06-10T08:26:47.906Z,20.02
2017-06-10T08:27:48.488Z,19.54
2017-06-10T08:28:49.069Z,19.48
2017-06-10T08:29:49.651Z,19.82
2017-06-10T08:30:50.233Z,19.96
2017-06-10T08:31:50.816Z,20.32
2017-06-10T08:32:51.399Z,20.04
2017-06-10T08:33:51.983Z,19.99
2017-06-10T08:34:52.561Z,20.07
2017-06-10T08:35:53.142Z,20.19
2017-06-10T08:36:53.723Z,20.06
2017-06-10T08:37:54.315Z,20.03
2017-06-10T08:38:54.895Z,19.89
2017-06-10T08:39:55.477Z,19.76
2017-06-10T08:40:56.060Z,20.26
2017-06-10T08:41:56.641Z,20.60
2017-06-10T08:42:57.223Z,20.60
2017-06-10T08:43:57.804Z,20.29
2017-06-10T08:44:58.387Z,20.62
2017-06-10T08:45:58.972Z,20.47
2017-06-10T08:46:59.550Z,20.41
2017-06-10T08:48:00.132Z,20.48
2017-06-10T08:49:00.712Z,20.34
2017-06-10T08:50:01.296Z,20.44
2017-06-10T08:51:01.889Z,20.26
2017-06-10T08:52:02.472Z,20.47
2017-06-10T08:53:03.054Z,20.41
2017-06-10T08:54:03.637Z,20.19
2017-06-10T08:55:04.217Z,20.36
2017-06-10T08:56:04.799Z,20.41
2017-06-10T08:57:05.384Z,20.14
2017-06-10T08:58:05.966Z,20.09
2017-06-10T08:59:06.547Z,20.28
2017-06-10T09:00:07.129Z,20.25
2017-06-10T09:01:07.722Z,20.43
2017-06-10T09:02:08.306Z,20.77
2017-06-10T09:03:08.886Z,20.88
2017-06-10T09:04:09.468Z,21.43
2017-06-10T09:05:10.056Z,21.00
2017-06-10T09:06:10.634Z,21.29
2017-06-10T09:07:11.216Z,21.42
2017-06-10T09:08:11.798Z,21.18
2017-06-10T09:09:12.380Z,20.65
2017-06-10T09:10:12.964Z,20.69
2017-06-10T09:11:13.546Z,20.41
2017-06-10T09:12:14.128Z,20.69
2017-06-10T09:13:14.712Z,20.65
2017-06-10T09:14:15.294Z,20.74
2017-06-10T09:15:15.877Z,21.33
2017-06-10T09:16:16.459Z,20.93
2017-06-10T09:17:17.044Z,20.75
2017-06-10T09:18:17.627Z,20.84
2017-06-10T09:19:18.211Z,20.69
2017-06-10T09:20:18.792Z,20.85
2017-06-10T09:21:19.376Z,21.24
2017-06-10T09:22:19.961Z,21.03
2017-06-10T09:23:20.544Z,20.81
2017-06-10T09:24:21.125Z,20.93
2017-06-10T09:25:21.709Z,20.75
2017-06-10T09:26:22.293Z,20.77
2017-06-10T09:27:22.875Z,20.95
2017-06-10T09:28:23.462Z,21.27
2017-06-10T09:29:24.041Z,21.57
2017-06-10T09:30:24.641Z,22.06
2017-06-10T09:31:25.220Z,22.30
2017-06-10T09:32:25.804Z,22.44
2017-06-10T09:33:26.387Z,22.17
2017-06-10T09:34:26.970Z,22.06
2017-06-10T09:35:27.556Z,21.98
2017-06-10T09:36:28.139Z,22.00
2017-06-10T09:37:28.721Z,21.54
2017-06-10T09:38:29.303Z,21.75
2017-06-10T09:39:29.887Z,21.67
2017-06-10T09:40:30.473Z,21.51
2017-06-10T09:41:31.054Z,21.58
2017-06-10T09:42:31.637Z,21.83
2017-06-10T09:43:32.231Z,21.72
2017-06-10T09:44:32.839Z,21.60
2017-06-10T09:45:33.407Z,21.51
2017-06-10T09:46:34.001Z,21.50
2017-06-10T09:47:34.583Z,21.15
2017-06-10T09:48:35.168Z,21.22
2017-06-10T09:49:35.773Z,21.57
2017-06-10T09:50:36.345Z,21.58
2017-06-10T09:51:36.928Z,21.73
2017-06-10T09:52:37.510Z,21.75
2017-06-10T09:53:38.096Z,21.76
2017-06-10T09:54:38.691Z,21.69
2017-06-10T09:55:39.275Z,21.61
2017-06-10T09:56:39.857Z,21.76
2017-06-10T09:57:40.439Z,22.23
2017-06-10T09:58:41.035Z,22.00
2017-06-10T09:59:41.617Z,22.18
2017-06-10T10:00:42.202Z,22.06
2017-06-10T10:01:42.790Z,22.00
2017-06-10T10:02:43.372Z,22.06
2017-06-10T10:03:43.959Z,22.14
2017-06-10T10:04:44.540Z,22.08
2017-06-10T10:05:45.124Z,21.83
2017-06-10T10:06:45.707Z,21.99
2017-06-10T10:07:46.291Z,21.50
2017-06-10T10:08:46.875Z,21.48
2017-06-10T10:09:47.458Z,21.61
2017-06-10T10:10:48.041Z,21.66
2017-06-10T10:11:48.625Z,21.80
2017-06-10T10:12:49.209Z,21.80
2017-06-10T10:13:49.794Z,21.82
2017-06-10T10:14:50.376Z,21.67
2017-06-10T10:15:50.959Z,21.72
2017-06-10T10:16:51.551Z,21.72
2017-06-10T10:17:52.131Z,21.69
2017-06-10T10:18:52.715Z,21.46
2017-06-10T10:19:53.302Z,21.62
2017-06-10T10:20:53.892Z,21.82
2017-06-10T10:21:54.477Z,21.87
2017-06-10T10:22:55.061Z,22.00
2017-06-10T10:23:55.657Z,22.00
2017-06-10T10:24:56.240Z,22.04
2017-06-10T10:25:56.836Z,21.82
2017-06-10T10:26:57.419Z,22.26
2017-06-10T10:27:58.002Z,22.84
2017-06-10T10:28:58.586Z,22.83
2017-06-10T10:29:59.182Z,22.68
2017-06-10T10:30:59.763Z,22.98
2017-06-10T10:32:00.347Z,22.68
2017-06-10T10:33:00.942Z,22.57
2017-06-10T10:34:01.528Z,22.81
2017-06-10T10:35:02.112Z,22.45
2017-06-10T10:36:02.695Z,21.91
2017-06-10T10:37:03.280Z,21.87
2017-06-10T10:38:03.863Z,21.79
2017-06-10T10:39:04.448Z,21.87
2017-06-10T10:40:05.070Z,22.35
2017-06-10T10:41:05.654Z,22.33
2017-06-10T10:42:06.239Z,22.06
2017-06-10T10:43:06.821Z,22.06
2017-06-10T10:44:07.405Z,22.48
2017-06-10T10:45:07.987Z,22.17
2017-06-10T10:46:08.571Z,22.14
2017-06-10T10:47:09.155Z,22.48
2017-06-10T10:48:09.737Z,22.83
2017-06-10T10:49:10.320Z,22.60
2017-06-10T10:50:10.905Z,22.84
2017-06-10T10:51:11.488Z,23.23
2017-06-10T10:52:12.072Z,23.62
2017-06-10T10:53:12.667Z,23.58
2017-06-10T10:54:13.253Z,23.43
2017-06-10T10:55:13.834Z,22.96
2017-06-10T10:56:14.418Z,22.72
2017-06-10T10:57:15.003Z,22.48
2017-06-10T10:58:15.586Z,22.81
2017-06-10T10:59:16.170Z,22.98
2017-06-10T11:00:16.757Z,22.32
2017-06-10T11:01:17.339Z,22.59
2017-06-10T11:02:17.927Z,22.66
2017-06-10T11:03:18.506Z,22.81
2017-06-10T11:04:19.092Z,23.05
2017-06-10T11:05:19.675Z,22.83
2017-06-10T11:06:20.259Z,22.91
2017-06-10T11:07:20.841Z,23.41
2017-06-10T11:08:21.427Z,22.93
2017-06-10T11:09:22.011Z,22.81
2017-06-10T11:10:22.594Z,22.80
2017-06-10T11:11:23.179Z,22.48
2017-06-10T11:12:23.764Z,22.75
2017-06-10T11:13:24.347Z,22.70
2017-06-10T11:14:24.939Z,22.66
2017-06-10T11:15:25.515Z,22.48
2017-06-10T11:16:26.099Z,22.48
2017-06-10T11:17:26.684Z,22.68
2017-06-10T11:18:27.267Z,23.23
2017-06-10T11:19:27.851Z,23.08
2017-06-10T11:20:28.437Z,23.37
2017-06-10T11:21:29.019Z,23.03
2017-06-10T11:22:29.605Z,23.00
2017-06-10T11:23:30.188Z,23.40
2017-06-10T11:24:30.785Z,23.02
2017-06-10T11:25:31.369Z,23.36
2017-06-10T11:26:31.954Z,23.20
2017-06-10T11:27:32.537Z,23.43
2017-06-10T11:28:33.120Z,23.36
2017-06-10T11:29:33.704Z,23.41
2017-06-10T11:30:34.289Z,22.84
2017-06-10T11:31:34.881Z,23.31
2017-06-10T11:32:35.457Z,23.83
2017-06-10T11:33:36.041Z,23.31
2017-06-10T11:34:36.626Z,23.51
2017-06-10T11:35:37.210Z,23.59
2017-06-10T11:36:37.793Z,23.15
2017-06-10T11:37:38.378Z,23.08
2017-06-10T11:38:38.972Z,23.37
2017-06-10T11:39:39.557Z,23.65
2017-06-10T11:40:40.143Z,23.27
2017-06-10T11:41:40.727Z,23.02
2017-06-10T11:42:41.311Z,23.09
2017-06-10T11:43:41.896Z,22.94
2017-06-10T11:44:42.485Z,23.17
2017-06-10T11:45:43.066Z,23.73
2017-06-10T11:46:43.651Z,23.34
2017-06-10T11:47:44.233Z,22.94
2017-06-10T11:48:44.818Z,23.80
2017-06-10T11:49:45.401Z,24.63
2017-06-10T11:50:45.986Z,23.68
2017-06-10T11:51:46.570Z,23.81
2017-06-10T11:52:47.165Z,24.01
2017-06-10T11:53:47.748Z,24.17
2017-06-10T11:54:48.334Z,24.10
2017-06-10T11:55:48.919Z,24.57
2017-06-10T11:56:49.502Z,24.13
2017-06-10T11:57:50.084Z,24.06
2017-06-10T11:58:50.670Z,24.16
2017-06-10T11:59:51.255Z,24.21
2017-06-10T12:00:51.839Z,24.50
2017-06-10T12:01:52.422Z,23.84
2017-06-10T12:02:53.007Z,23.80
2017-06-10T12:03:53.592Z,23.66
2017-06-10T12:04:54.178Z,23.12
2017-06-10T12:05:54.762Z,23.06
2017-06-10T12:06:55.346Z,23.44
2017-06-10T12:07:55.932Z,23.39
2017-06-10T12:08:56.516Z,23.65
2017-06-10T12:09:57.101Z,23.98
2017-06-10T12:10:57.685Z,24.66
2017-06-10T12:11:58.269Z,24.78
2017-06-10T12:12:58.854Z,24.28
2017-06-10T12:13:59.438Z,24.14
2017-06-10T12:15:00.023Z,23.87
2017-06-10T12:16:00.608Z,23.59
2017-06-10T12:17:01.193Z,23.66
2017-06-10T12:18:01.798Z,23.40
2017-06-10T12:19:02.372Z,23.88
2017-06-10T12:20:02.959Z,23.78
2017-06-10T12:21:03.540Z,23.37
2017-06-10T12:22:04.126Z,23.36
2017-06-10T12:23:04.710Z,23.44
2017-06-10T12:24:05.307Z,23.91
2017-06-10T12:25:05.891Z,23.98
2017-06-10T12:26:06.477Z,24.48
2017-06-10T12:27:07.062Z,24.23
2017-06-10T12:28:07.646Z,23.87
2017-06-10T12:29:08.230Z,23.81
2017-06-10T12:30:08.814Z,23.95
2017-06-10T12:31:09.399Z,23.91
2017-06-10T12:32:09.983Z,24.50
2017-06-10T12:33:10.567Z,24.76
2017-06-10T12:34:11.164Z,24.14
2017-06-10T12:35:11.748Z,23.87
2017-06-10T12:36:12.332Z,23.91
2017-06-10T12:37:12.918Z,23.87
2017-06-10T12:38:13.502Z,23.81
2017-06-10T12:39:14.086Z,23.69
2017-06-10T12:40:14.673Z,24.24
2017-06-10T12:41:15.257Z,24.32
2017-06-10T12:42:15.841Z,23.95
2017-06-10T12:43:16.425Z,24.05
2017-06-10T12:44:17.010Z,24.28
2017-06-10T12:45:17.600Z,24.30
2017-06-10T12:46:18.180Z,24.13
2017-06-10T12:47:18.764Z,23.81
2017-06-10T12:48:19.350Z,24.36
2017-06-10T12:49:19.939Z,24.70
2017-06-10T12:50:20.518Z,24.55
2017-06-10T12:51:21.105Z,24.11
2017-06-10T12:52:21.688Z,24.32
2017-06-10T12:53:22.273Z,24.24
2017-06-10T12:54:22.857Z,23.84
2017-06-10T12:55:23.442Z,24.11
2017-06-10T12:56:24.028Z,24.10
2017-06-10T12:57:24.624Z,24.11
2017-06-10T12:58:25.208Z,24.16
2017-06-10T12:59:25.792Z,23.99
2017-06-10T13:00:26.376Z,24.45